Midway, Florida
Current Conditions -  °F | °C
As of 12:35 PM on Monday 24 Nov 2014 (Local Time) from K2J9 Reporting Station
Overcast Overcast  
Wind Chill: 72°   Ceiling: 400
Heat Index: 72°   Visibility: 4mi
Dew Point: 72°   Wind: 6mph
Humidity: 100%   Direction: 190°S
Pressure: 29.89"   Gusts: NA
Location:  30.5°N, 84.45°W
Report Text: K2J9 241735Z AUTO 19005KT 4SM OVC004 22/22 A2989 RMK AO1 P0002
Loading
Personal Weather Stations






























Interactive Weather Map New forecast layout! Learn more

10-Day Weather Forecast

Advertisements
Track Severe Weather on mobile